McHenry, Mississippi
Current Conditions -  °F | °C
As of 3:53 PM on Saturday 25 Oct 2014 (Local Time) from KGPT Reporting Station
Clear Clear  
Wind Chill: 27°   Ceiling: Unl
Heat Index: 27°   Visibility: 10mi
Dew Point: 13°   Wind: 10mph
Humidity: 41%   Direction: 350°N
Pressure: 30.04"   Gusts: NA
Location:  30.71°N, 89.14°W
Report Text: KGPT 252053Z 35009KT 10SM CLR 27/13 A3004 RMK AO2 SLP173 T02720128 56018
Loading
Personal Weather Stations






























Interactive Weather Map
Tropical Storm Tracking
New forecast layout! Learn more

10-Day Weather Forecast

Advertisements
Track Severe Weather on mobile